createdAt,value
2022-08-22T00:02:23.695Z,16.71
2022-08-22T00:03:03.228Z,18.87
2022-08-22T00:03:04.652Z,17.77
2022-08-22T00:05:28.246Z,16.57
2022-08-22T00:08:36.339Z,16.53
2022-08-22T00:11:34.817Z,16.40
2022-08-22T00:14:25.491Z,16.65
2022-08-22T00:17:29.260Z,16.96
2022-08-22T00:20:18.345Z,16.92
2022-08-22T00:23:39.390Z,16.86
2022-08-22T00:26:45.453Z,16.69
2022-08-22T00:29:53.474Z,16.47
2022-08-22T00:32:50.147Z,16.52
2022-08-22T00:35:45.454Z,16.67
2022-08-22T00:38:38.538Z,16.65
2022-08-22T00:42:01.590Z,16.80
2022-08-22T00:45:12.254Z,16.97
2022-08-22T00:48:23.076Z,16.98
2022-08-22T00:51:37.319Z,16.74
2022-08-22T00:54:48.125Z,16.66
2022-08-22T00:57:53.552Z,16.76
2022-08-22T01:00:45.162Z,16.73
2022-08-22T01:04:16.208Z,16.67
2022-08-22T01:07:05.506Z,16.90
2022-08-22T01:10:17.091Z,16.98
2022-08-22T01:13:14.072Z,16.99
2022-08-22T01:16:31.343Z,17.00
2022-08-22T01:19:27.180Z,16.90
2022-08-22T01:22:28.388Z,16.88
2022-08-22T01:25:36.347Z,16.91
2022-08-22T01:28:38.098Z,16.89
2022-08-22T01:31:45.207Z,16.84
2022-08-22T01:34:59.438Z,17.10
2022-08-22T01:38:03.406Z,16.91
2022-08-22T01:41:17.094Z,17.01
2022-08-22T01:44:27.508Z,17.09
2022-08-22T01:47:39.129Z,16.94
2022-08-22T01:50:38.056Z,16.93
2022-08-22T01:53:26.583Z,16.92
2022-08-22T01:56:23.441Z,16.96
2022-08-22T01:59:47.166Z,17.05
2022-08-22T02:03:05.275Z,17.24
2022-08-22T02:06:06.097Z,17.14
2022-08-22T02:09:46.608Z,17.02
2022-08-22T02:12:45.212Z,17.03
2022-08-22T02:15:40.557Z,16.90
2022-08-22T02:18:31.385Z,17.08
2022-08-22T02:21:21.230Z,17.00
2022-08-22T02:24:33.891Z,16.84
2022-08-22T02:27:33.736Z,17.02
2022-08-22T02:30:29.059Z,17.01
2022-08-22T02:33:43.882Z,16.87
2022-08-22T02:36:40.335Z,16.90
2022-08-22T02:39:35.046Z,16.90
2022-08-22T02:42:41.067Z,16.82
2022-08-22T02:45:59.939Z,16.77
2022-08-22T02:49:02.414Z,16.84
2022-08-22T02:52:16.953Z,16.66
2022-08-22T02:55:16.656Z,16.81
2022-08-22T02:58:09.146Z,16.86
2022-08-22T03:00:58.370Z,16.85
2022-08-22T03:03:47.161Z,16.66
2022-08-22T03:06:40.923Z,16.97
2022-08-22T03:09:32.649Z,16.79
2022-08-22T03:12:21.880Z,16.98
2022-08-22T03:15:21.184Z,16.86
2022-08-22T03:18:27.942Z,16.97
2022-08-22T03:21:56.349Z,16.91
2022-08-22T03:25:07.925Z,16.84
2022-08-22T03:28:09.254Z,16.71
2022-08-22T03:31:19.075Z,16.79
2022-08-22T03:34:27.262Z,16.83
2022-08-22T03:37:21.848Z,16.85
2022-08-22T03:40:20.265Z,16.79
2022-08-22T03:43:24.489Z,17.03
2022-08-22T03:46:27.796Z,16.89
2022-08-22T03:49:23.450Z,16.94
2022-08-22T03:52:16.478Z,16.93
2022-08-22T03:55:20.249Z,16.80
2022-08-22T03:58:47.016Z,16.67
2022-08-22T04:01:57.119Z,16.78
2022-08-22T04:05:15.604Z,16.93
2022-08-22T04:08:34.364Z,16.89
2022-08-22T04:11:46.647Z,16.79
2022-08-22T04:15:24.689Z,16.90
2022-08-22T04:18:34.513Z,16.74
2022-08-22T04:21:43.342Z,16.69
2022-08-22T04:24:43.459Z,16.56
2022-08-22T04:27:53.366Z,16.46
2022-08-22T04:30:56.864Z,16.54
2022-08-22T04:33:45.274Z,16.52
2022-08-22T04:36:53.791Z,16.65
2022-08-22T04:40:08.482Z,16.95
2022-08-22T04:43:33.474Z,16.78
2022-08-22T04:46:35.138Z,16.70
2022-08-22T04:49:36.281Z,16.64
2022-08-22T04:52:48.948Z,16.87
2022-08-22T04:55:54.804Z,16.68
2022-08-22T04:59:13.710Z,16.92
2022-08-22T05:02:06.670Z,16.78
2022-08-22T05:05:15.820Z,16.66
2022-08-22T05:08:04.518Z,16.76
2022-08-22T05:10:52.583Z,16.65
2022-08-22T05:13:42.461Z,16.61
2022-08-22T05:16:34.724Z,16.57
2022-08-22T05:19:32.115Z,16.52
2022-08-22T05:22:32.572Z,16.59
2022-08-22T05:25:26.591Z,16.74
2022-08-22T05:28:33.784Z,16.70
2022-08-22T05:31:27.006Z,16.56
2022-08-22T05:34:23.693Z,16.76
2022-08-22T05:37:24.408Z,16.81
2022-08-22T05:40:19.496Z,16.83
2022-08-22T05:43:09.473Z,16.96
2022-08-22T05:45:58.519Z,17.02
2022-08-22T05:48:57.451Z,16.92
2022-08-22T05:51:53.618Z,17.01
2022-08-22T05:55:06.597Z,17.10
2022-08-22T05:58:28.829Z,17.38
2022-08-22T06:01:36.545Z,17.27
2022-08-22T06:04:31.512Z,17.34
2022-08-22T06:07:22.457Z,17.46
2022-08-22T06:10:24.665Z,17.22
2022-08-22T06:13:15.743Z,17.11
2022-08-22T06:16:17.507Z,17.10
2022-08-22T06:19:19.289Z,17.41
2022-08-22T06:22:06.487Z,17.25
2022-08-22T06:24:58.019Z,17.30
2022-08-22T06:27:46.560Z,17.24
2022-08-22T06:30:33.643Z,17.22
2022-08-22T06:33:29.361Z,17.30
2022-08-22T06:36:32.014Z,17.23
2022-08-22T06:39:25.348Z,17.10
2022-08-22T06:42:18.392Z,17.19
2022-08-22T06:45:23.257Z,17.07
2022-08-22T06:48:09.679Z,17.12
2022-08-22T06:50:58.707Z,17.18
2022-08-22T06:53:53.673Z,17.32
2022-08-22T06:56:45.255Z,17.54
2022-08-22T06:59:32.458Z,17.69
2022-08-22T07:02:26.487Z,17.73
2022-08-22T07:05:22.627Z,17.78
2022-08-22T07:08:13.199Z,17.72
2022-08-22T07:11:07.009Z,17.66
2022-08-22T07:13:58.491Z,17.70
2022-08-22T07:16:50.509Z,17.66
2022-08-22T07:19:39.539Z,17.57
2022-08-22T07:22:31.368Z,17.38
2022-08-22T07:25:20.560Z,17.38
2022-08-22T07:28:36.619Z,17.48
2022-08-22T07:31:34.402Z,17.48
2022-08-22T07:34:43.363Z,17.68
2022-08-22T07:38:02.600Z,17.73
2022-08-22T07:41:07.317Z,17.96
2022-08-22T07:44:11.160Z,18.00
2022-08-22T07:47:13.170Z,17.93
2022-08-22T07:50:05.251Z,17.87
2022-08-22T07:52:53.163Z,17.82
2022-08-22T07:55:48.434Z,17.99
2022-08-22T07:58:39.509Z,18.07
2022-08-22T08:01:27.413Z,18.03
2022-08-22T08:04:18.185Z,18.01
2022-08-22T08:07:08.342Z,17.92
2022-08-22T08:10:01.419Z,17.73
2022-08-22T08:12:52.785Z,17.61
2022-08-22T08:15:50.687Z,17.49
2022-08-22T08:18:44.808Z,17.22
2022-08-22T08:21:43.258Z,17.11
2022-08-22T08:24:39.989Z,16.98
2022-08-22T08:27:55.222Z,16.93
2022-08-22T08:30:56.177Z,16.81
2022-08-22T08:33:55.406Z,16.73
2022-08-22T08:36:56.356Z,16.69
2022-08-22T08:39:50.663Z,16.55
2022-08-22T08:43:30.065Z,16.79
2022-08-22T08:46:35.158Z,16.67
2022-08-22T08:49:53.167Z,16.59
2022-08-22T08:52:45.399Z,16.63
2022-08-22T08:55:51.294Z,16.54
2022-08-22T08:59:00.322Z,16.58
2022-08-22T09:02:07.115Z,16.57
2022-08-22T09:05:15.406Z,16.56
2022-08-22T09:08:24.676Z,16.52
2022-08-22T09:11:28.860Z,16.48
2022-08-22T09:14:46.178Z,16.50
2022-08-22T09:17:51.025Z,16.56
2022-08-22T09:21:30.491Z,16.67
2022-08-22T09:24:26.262Z,16.82
2022-08-22T09:27:33.245Z,16.81
2022-08-22T09:33:39.015Z,16.83
2022-08-22T09:36:33.470Z,17.00
2022-08-22T09:39:28.292Z,17.07
2022-08-22T09:42:25.190Z,17.06
2022-08-22T09:45:11.928Z,17.04
2022-08-22T09:48:06.377Z,17.00
2022-08-22T09:51:32.471Z,17.09
2022-08-22T09:54:34.102Z,16.95
2022-08-22T09:57:36.750Z,17.27
2022-08-22T10:00:35.121Z,17.19
2022-08-22T10:03:59.262Z,17.42
2022-08-22T10:07:12.049Z,17.38
2022-08-22T10:10:24.562Z,17.45
2022-08-22T10:13:18.276Z,17.56
2022-08-22T10:16:27.026Z,17.52
2022-08-22T10:19:27.068Z,17.59
2022-08-22T10:22:35.761Z,17.69
2022-08-22T10:25:35.795Z,17.72
2022-08-22T10:28:47.927Z,17.68
2022-08-22T10:31:57.087Z,17.96
2022-08-22T10:34:49.012Z,17.96
2022-08-22T10:37:51.993Z,17.95
2022-08-22T10:40:52.150Z,18.10
2022-08-22T10:43:41.039Z,18.20
2022-08-22T10:46:42.413Z,18.18
2022-08-22T10:49:30.963Z,18.22
2022-08-22T10:52:24.165Z,18.23
2022-08-22T10:55:27.003Z,18.32
2022-08-22T10:58:21.775Z,18.44
2022-08-22T11:01:38.170Z,18.46
2022-08-22T11:04:28.228Z,18.52
2022-08-22T11:07:39.488Z,18.55
2022-08-22T11:10:41.037Z,18.63
2022-08-22T11:14:13.826Z,18.60
2022-08-22T11:17:53.752Z,18.64
2022-08-22T11:21:10.909Z,18.56
2022-08-22T11:24:06.880Z,18.57
2022-08-22T11:27:14.671Z,18.53
2022-08-22T11:30:18.283Z,18.58
2022-08-22T11:33:49.139Z,18.39
2022-08-22T11:36:50.321Z,18.45
2022-08-22T11:39:44.452Z,18.62
2022-08-22T11:42:47.487Z,18.56
2022-08-22T11:45:51.676Z,18.54
2022-08-22T11:49:04.745Z,18.59
2022-08-22T11:51:57.991Z,18.68
2022-08-22T11:55:12.722Z,18.82
2022-08-22T11:58:13.649Z,18.94
2022-08-22T12:01:27.822Z,18.96
2022-08-22T12:04:31.040Z,18.76
2022-08-22T12:07:25.778Z,18.88
2022-08-22T12:10:21.768Z,19.04
2022-08-22T12:13:21.028Z,19.15
2022-08-22T12:16:51.764Z,19.04
2022-08-22T12:20:14.635Z,19.11
2022-08-22T12:23:48.742Z,19.07
2022-08-22T12:26:45.635Z,19.21
2022-08-22T12:30:15.887Z,19.22
2022-08-22T12:33:28.902Z,19.10
2022-08-22T12:36:52.700Z,19.34
2022-08-22T12:39:58.754Z,19.41
2022-08-22T12:42:48.932Z,19.48
2022-08-22T12:46:04.632Z,19.55
2022-08-22T12:49:29.606Z,19.46
2022-08-22T12:52:28.776Z,19.58
2022-08-22T12:55:27.700Z,19.67
2022-08-22T12:58:29.477Z,19.60
2022-08-22T13:01:23.296Z,19.65
2022-08-22T13:04:32.696Z,19.75
2022-08-22T13:07:30.547Z,19.86
2022-08-22T13:10:33.515Z,19.85
2022-08-22T13:13:37.298Z,19.75
2022-08-22T13:16:38.692Z,20.00
2022-08-22T13:19:29.851Z,20.05
2022-08-22T13:22:23.756Z,20.04
2022-08-22T13:25:19.147Z,20.00
2022-08-22T13:28:12.789Z,20.00
2022-08-22T13:31:00.553Z,20.02
2022-08-22T13:33:48.855Z,20.06
2022-08-22T13:36:42.864Z,20.11
2022-08-22T13:39:44.636Z,20.15
2022-08-22T13:42:40.174Z,20.23
2022-08-22T13:45:28.723Z,20.35
2022-08-22T13:48:15.750Z,20.43
2022-08-22T13:51:16.740Z,20.52
2022-08-22T13:54:11.202Z,20.61
2022-08-22T13:57:18.633Z,20.59
2022-08-22T14:00:12.438Z,20.58
2022-08-22T14:03:20.403Z,20.69
2022-08-22T14:06:49.232Z,20.74
2022-08-22T14:09:45.288Z,20.77
2022-08-22T14:12:50.659Z,20.62
2022-08-22T14:15:45.938Z,20.82
2022-08-22T14:18:36.556Z,20.82
2022-08-22T14:21:43.562Z,20.88
2022-08-22T14:24:33.408Z,20.74
2022-08-22T14:27:39.786Z,20.87
2022-08-22T14:30:30.317Z,20.81
2022-08-22T14:33:22.719Z,20.86
2022-08-22T14:36:39.591Z,20.93
2022-08-22T14:39:44.583Z,20.70
2022-08-22T14:43:22.510Z,20.98
2022-08-22T14:46:14.419Z,20.98
2022-08-22T14:49:13.716Z,20.95
2022-08-22T14:52:08.860Z,20.94
2022-08-22T14:55:09.678Z,21.00
2022-08-22T14:58:05.921Z,21.00
2022-08-22T15:00:55.295Z,20.99
2022-08-22T15:03:42.548Z,20.67
2022-08-22T15:06:53.488Z,20.96
2022-08-22T15:09:57.491Z,20.88
2022-08-22T15:12:50.357Z,20.86
2022-08-22T15:15:41.165Z,20.84
2022-08-22T15:18:39.522Z,20.79
2022-08-22T15:21:33.383Z,20.85
2022-08-22T15:24:25.565Z,20.85
2022-08-22T15:27:19.326Z,20.82
2022-08-22T15:30:18.863Z,20.82
2022-08-22T15:33:12.494Z,20.89
2022-08-22T15:36:08.994Z,20.87
2022-08-22T15:39:32.339Z,20.95
2022-08-22T15:42:27.424Z,20.92
2022-08-22T15:45:30.377Z,20.75
2022-08-22T15:48:31.576Z,20.86
2022-08-22T15:51:46.583Z,20.86
2022-08-22T15:54:57.205Z,20.83
2022-08-22T15:58:19.401Z,20.70
2022-08-22T16:01:20.533Z,20.74
2022-08-22T16:04:14.235Z,20.70
2022-08-22T16:07:01.359Z,20.74
2022-08-22T16:09:51.492Z,20.55
2022-08-22T16:12:44.215Z,20.58
2022-08-22T16:16:34.208Z,20.60
2022-08-22T16:19:26.181Z,20.52
2022-08-22T16:22:14.267Z,20.56
2022-08-22T16:25:01.382Z,20.51
2022-08-22T16:27:53.460Z,20.49
2022-08-22T16:30:40.427Z,20.34
2022-08-22T16:33:40.332Z,20.44
2022-08-22T16:36:45.320Z,20.37
2022-08-22T16:39:55.283Z,20.42
2022-08-22T16:42:51.076Z,20.39
2022-08-22T16:45:45.425Z,20.38
2022-08-22T16:48:39.672Z,20.41
2022-08-22T16:51:26.474Z,20.38
2022-08-22T16:54:44.145Z,20.43
2022-08-22T16:57:59.353Z,20.45
2022-08-22T17:01:17.375Z,20.42
2022-08-22T17:04:28.194Z,20.39
2022-08-22T17:07:24.955Z,20.32
2022-08-22T17:10:34.484Z,20.41
2022-08-22T17:13:44.146Z,20.42
2022-08-22T17:16:53.933Z,20.44
2022-08-22T17:19:55.288Z,20.29
2022-08-22T17:23:12.547Z,20.38
2022-08-22T17:26:14.508Z,20.34
2022-08-22T17:29:16.060Z,20.31
2022-08-22T17:32:31.376Z,20.32
2022-08-22T17:35:34.451Z,20.33
2022-08-22T17:38:45.384Z,20.27
2022-08-22T17:41:58.342Z,20.23
2022-08-22T17:45:09.156Z,20.18
2022-08-22T17:48:21.119Z,20.14
2022-08-22T17:51:58.979Z,20.14
2022-08-22T17:54:53.303Z,20.06
2022-08-22T17:57:49.043Z,20.05
2022-08-22T18:00:42.347Z,19.98
2022-08-22T18:03:36.159Z,20.01
2022-08-22T18:06:31.098Z,19.95
2022-08-22T18:10:00.003Z,20.00
2022-08-22T18:13:08.215Z,19.84
2022-08-22T18:16:02.019Z,19.93
2022-08-22T18:19:07.069Z,19.88
2022-08-22T18:21:58.950Z,19.80
2022-08-22T18:25:11.513Z,19.79
2022-08-22T18:28:27.155Z,19.81
2022-08-22T18:31:36.378Z,19.64
2022-08-22T18:34:33.893Z,19.65
2022-08-22T18:37:39.724Z,19.46
2022-08-22T18:40:45.502Z,19.53
2022-08-22T18:43:37.475Z,19.49
2022-08-22T18:46:38.696Z,19.49
2022-08-22T18:49:24.775Z,19.43
2022-08-22T18:52:25.587Z,19.40
2022-08-22T18:55:23.645Z,19.32
2022-08-22T18:58:42.044Z,19.27
2022-08-22T19:01:56.795Z,19.17
2022-08-22T19:04:52.275Z,19.08
2022-08-22T19:08:03.132Z,18.98
2022-08-22T19:11:04.475Z,18.98
2022-08-22T19:14:11.345Z,18.91
2022-08-22T19:17:06.523Z,18.85
2022-08-22T19:20:29.381Z,18.70
2022-08-22T19:23:33.423Z,18.72
2022-08-22T19:26:29.456Z,18.64
2022-08-22T19:29:16.479Z,18.62
2022-08-22T19:32:12.778Z,18.56
2022-08-22T19:35:25.305Z,18.55
2022-08-22T19:38:12.290Z,18.41
2022-08-22T19:40:58.634Z,18.50
2022-08-22T19:43:46.442Z,18.44
2022-08-22T19:46:38.121Z,18.24
2022-08-22T19:49:30.849Z,18.40
2022-08-22T19:52:16.558Z,18.50
2022-08-22T19:55:16.441Z,18.44
2022-08-22T19:58:41.551Z,18.50
2022-08-22T20:01:34.366Z,18.53
2022-08-22T20:04:39.346Z,18.51
2022-08-22T20:07:43.608Z,18.54
2022-08-22T20:10:58.889Z,18.55
2022-08-22T20:13:45.538Z,18.55
2022-08-22T20:17:08.306Z,18.50
2022-08-22T20:20:19.544Z,18.45
2022-08-22T20:23:20.573Z,18.37
2022-08-22T20:26:07.412Z,18.39
2022-08-22T20:28:54.243Z,18.39
2022-08-22T20:31:40.478Z,18.34
2022-08-22T20:34:31.045Z,18.33
2022-08-22T20:37:50.655Z,18.35
2022-08-22T20:40:56.990Z,18.39
2022-08-22T20:43:57.335Z,18.36
2022-08-22T20:46:55.518Z,18.31
2022-08-22T20:49:48.037Z,18.31
2022-08-22T20:52:33.829Z,18.31
2022-08-22T20:55:27.266Z,18.29
2022-08-22T20:58:25.374Z,18.26
2022-08-22T21:01:13.825Z,18.28
2022-08-22T21:04:01.026Z,18.27
2022-08-22T21:06:48.110Z,18.08
2022-08-22T21:09:53.220Z,18.21
2022-08-22T21:12:39.985Z,18.09
2022-08-22T21:15:41.406Z,18.20
2022-08-22T21:18:38.986Z,18.05
2022-08-22T21:21:28.233Z,18.09
2022-08-22T21:24:15.485Z,18.13
2022-08-22T21:27:02.259Z,18.13
2022-08-22T21:29:54.127Z,18.04
2022-08-22T21:32:51.121Z,18.04
2022-08-22T21:35:39.879Z,18.09
2022-08-22T21:38:27.976Z,18.11
2022-08-22T21:41:19.381Z,18.11
2022-08-22T21:44:40.172Z,18.17
2022-08-22T21:47:33.849Z,18.16
2022-08-22T21:50:26.035Z,18.18
2022-08-22T21:53:28.107Z,18.12
2022-08-22T21:56:16.297Z,18.10
2022-08-22T21:59:52.284Z,18.05
2022-08-22T22:02:39.828Z,17.85
2022-08-22T22:05:26.316Z,17.99
2022-08-22T22:08:12.991Z,17.86
2022-08-22T22:11:08.419Z,17.87
2022-08-22T22:13:54.956Z,17.77
2022-08-22T22:16:41.222Z,17.76
2022-08-22T22:19:27.916Z,17.61
2022-08-22T22:22:14.088Z,17.75
2022-08-22T22:25:00.030Z,17.73
2022-08-22T22:27:47.124Z,17.72
2022-08-22T22:30:33.830Z,17.68
2022-08-22T22:33:23.620Z,17.66
2022-08-22T22:36:15.005Z,17.60
2022-08-22T22:39:00.967Z,17.56
2022-08-22T22:41:46.948Z,17.40
2022-08-22T22:44:33.052Z,17.58
2022-08-22T22:47:26.168Z,17.58
2022-08-22T22:50:13.100Z,17.41
2022-08-22T22:53:00.918Z,17.58
2022-08-22T22:55:59.831Z,17.39
2022-08-22T22:58:47.445Z,17.50
2022-08-22T23:01:34.223Z,17.51
2022-08-22T23:04:20.563Z,17.34
2022-08-22T23:07:08.095Z,17.53
2022-08-22T23:09:55.792Z,17.53
2022-08-22T23:12:43.263Z,17.52
2022-08-22T23:15:29.790Z,17.37
2022-08-22T23:18:15.952Z,17.57
2022-08-22T23:21:14.450Z,17.60
2022-08-22T23:24:00.971Z,17.60
2022-08-22T23:26:47.159Z,17.57
2022-08-22T23:29:33.702Z,17.48
2022-08-22T23:32:19.730Z,17.43
2022-08-22T23:35:06.086Z,17.41
2022-08-22T23:37:52.883Z,17.43
2022-08-22T23:40:38.721Z,17.36
2022-08-22T23:43:24.615Z,17.51
2022-08-22T23:46:12.480Z,17.48
2022-08-22T23:48:58.729Z,17.49
2022-08-22T23:51:46.925Z,17.48
2022-08-22T23:54:34.496Z,17.46
2022-08-22T23:57:20.711Z,17.52
